sensor_id;sensor_type;location;lat;lon;timestamp;P1;durP1;ratioP1;P2;durP2;ratioP2
33579;SDS011;19909;43.644;-79.438;2023-04-24T00:00:31;1.30;;;0.68;;
33579;SDS011;19909;43.644;-79.438;2023-04-24T00:02:58;0.85;;;0.63;;
33579;SDS011;19909;43.644;-79.438;2023-04-24T00:05:24;1.20;;;0.75;;
33579;SDS011;19909;43.644;-79.438;2023-04-24T00:07:50;0.68;;;0.60;;
33579;SDS011;19909;43.644;-79.438;2023-04-24T00:10:20;0.70;;;0.70;;
33579;SDS011;19909;43.644;-79.438;2023-04-24T00:12:46;1.33;;;0.70;;
33579;SDS011;19909;43.644;-79.438;2023-04-24T00:15:13;0.98;;;0.57;;
33579;SDS011;19909;43.644;-79.438;2023-04-24T00:17:39;1.33;;;0.73;;
33579;SDS011;19909;43.644;-79.438;2023-04-24T00:20:05;0.82;;;0.57;;
33579;SDS011;19909;43.644;-79.438;2023-04-24T00:22:32;0.90;;;0.68;;
33579;SDS011;19909;43.644;-79.438;2023-04-24T00:24:58;1.08;;;0.70;;
33579;SDS011;19909;43.644;-79.438;2023-04-24T00:27:25;0.85;;;0.68;;
33579;SDS011;19909;43.644;-79.438;2023-04-24T00:29:51;1.10;;;0.70;;
33579;SDS011;19909;43.644;-79.438;2023-04-24T00:32:17;0.90;;;0.80;;
33579;SDS011;19909;43.644;-79.438;2023-04-24T00:34:43;1.20;;;0.57;;
33579;SDS011;19909;43.644;-79.438;2023-04-24T00:37:09;0.70;;;0.60;;
33579;SDS011;19909;43.644;-79.438;2023-04-24T00:39:36;1.33;;;0.55;;
33579;SDS011;19909;43.644;-79.438;2023-04-24T00:42:02;0.70;;;0.70;;
33579;SDS011;19909;43.644;-79.438;2023-04-24T00:44:32;1.17;;;0.80;;
33579;SDS011;19909;43.644;-79.438;2023-04-24T00:47:00;0.57;;;0.57;;
33579;SDS011;19909;43.644;-79.438;2023-04-24T00:49:27;0.63;;;0.57;;
33579;SDS011;19909;43.644;-79.438;2023-04-24T00:51:53;0.93;;;0.50;;
33579;SDS011;19909;43.644;-79.438;2023-04-24T00:54:19;0.45;;;0.45;;
33579;SDS011;19909;43.644;-79.438;2023-04-24T00:56:46;0.65;;;0.50;;
33579;SDS011;19909;43.644;-79.438;2023-04-24T00:59:12;1.60;;;0.80;;
33579;SDS011;19909;43.644;-79.438;2023-04-24T01:01:41;0.57;;;0.45;;
33579;SDS011;19909;43.644;-79.438;2023-04-24T01:04:09;0.80;;;0.75;;
33579;SDS011;19909;43.644;-79.438;2023-04-24T01:06:36;0.65;;;0.47;;
33579;SDS011;19909;43.644;-79.438;2023-04-24T01:09:05;0.82;;;0.50;;
33579;SDS011;19909;43.644;-79.438;2023-04-24T01:11:33;0.82;;;0.50;;
33579;SDS011;19909;43.644;-79.438;2023-04-24T01:14:00;0.88;;;0.60;;
33579;SDS011;19909;43.644;-79.438;2023-04-24T01:16:26;0.40;;;0.40;;
33579;SDS011;19909;43.644;-79.438;2023-04-24T01:18:52;0.50;;;0.40;;
33579;SDS011;19909;43.644;-79.438;2023-04-24T01:21:19;0.47;;;0.30;;
33579;SDS011;19909;43.644;-79.438;2023-04-24T01:23:46;0.93;;;0.40;;
33579;SDS011;19909;43.644;-79.438;2023-04-24T01:26:14;0.40;;;0.40;;
33579;SDS011;19909;43.644;-79.438;2023-04-24T01:28:41;0.55;;;0.30;;
33579;SDS011;19909;43.644;-79.438;2023-04-24T01:31:07;0.68;;;0.43;;
33579;SDS011;19909;43.644;-79.438;2023-04-24T01:33:34;0.40;;;0.40;;
33579;SDS011;19909;43.644;-79.438;2023-04-24T01:36:00;1.05;;;0.60;;
33579;SDS011;19909;43.644;-79.438;2023-04-24T01:38:27;0.30;;;0.30;;
33579;SDS011;19909;43.644;-79.438;2023-04-24T01:40:53;0.57;;;0.30;;
33579;SDS011;19909;43.644;-79.438;2023-04-24T01:43:19;0.40;;;0.30;;
33579;SDS011;19909;43.644;-79.438;2023-04-24T01:45:46;0.60;;;0.40;;
33579;SDS011;19909;43.644;-79.438;2023-04-24T01:48:13;0.60;;;0.30;;
33579;SDS011;19909;43.644;-79.438;2023-04-24T01:50:39;0.32;;;0.32;;
33579;SDS011;19909;43.644;-79.438;2023-04-24T01:53:05;0.73;;;0.43;;
33579;SDS011;19909;43.644;-79.438;2023-04-24T01:55:31;1.05;;;0.40;;
33579;SDS011;19909;43.644;-79.438;2023-04-24T01:57:58;0.57;;;0.40;;
33579;SDS011;19909;43.644;-79.438;2023-04-24T02:00:26;0.40;;;0.30;;
33579;SDS011;19909;43.644;-79.438;2023-04-24T02:02:52;0.55;;;0.40;;
33579;SDS011;19909;43.644;-79.438;2023-04-24T02:05:18;0.40;;;0.30;;
33579;SDS011;19909;43.644;-79.438;2023-04-24T02:07:44;0.35;;;0.30;;
33579;SDS011;19909;43.644;-79.438;2023-04-24T02:10:11;0.95;;;0.45;;
33579;SDS011;19909;43.644;-79.438;2023-04-24T02:12:37;0.52;;;0.40;;
33579;SDS011;19909;43.644;-79.438;2023-04-24T02:15:03;0.30;;;0.20;;
33579;SDS011;19909;43.644;-79.438;2023-04-24T02:17:30;0.40;;;0.30;;
33579;SDS011;19909;43.644;-79.438;2023-04-24T02:19:56;0.88;;;0.30;;
33579;SDS011;19909;43.644;-79.438;2023-04-24T02:22:22;0.30;;;0.30;;
33579;SDS011;19909;43.644;-79.438;2023-04-24T02:24:48;0.55;;;0.50;;
33579;SDS011;19909;43.644;-79.438;2023-04-24T02:27:15;0.30;;;0.30;;
33579;SDS011;19909;43.644;-79.438;2023-04-24T02:29:41;0.75;;;0.40;;
33579;SDS011;19909;43.644;-79.438;2023-04-24T02:32:07;0.30;;;0.25;;
33579;SDS011;19909;43.644;-79.438;2023-04-24T02:34:37;0.70;;;0.40;;
33579;SDS011;19909;43.644;-79.438;2023-04-24T02:37:03;0.60;;;0.30;;
33579;SDS011;19909;43.644;-79.438;2023-04-24T02:39:29;0.70;;;0.38;;
33579;SDS011;19909;43.644;-79.438;2023-04-24T02:41:56;0.60;;;0.40;;
33579;SDS011;19909;43.644;-79.438;2023-04-24T02:44:22;0.82;;;0.30;;
33579;SDS011;19909;43.644;-79.438;2023-04-24T02:46:48;0.52;;;0.43;;
33579;SDS011;19909;43.644;-79.438;2023-04-24T02:49:14;0.40;;;0.40;;
33579;SDS011;19909;43.644;-79.438;2023-04-24T02:51:40;0.82;;;0.30;;
33579;SDS011;19909;43.644;-79.438;2023-04-24T02:54:07;0.52;;;0.22;;
33579;SDS011;19909;43.644;-79.438;2023-04-24T02:56:35;0.63;;;0.35;;
33579;SDS011;19909;43.644;-79.438;2023-04-24T02:59:01;0.55;;;0.30;;
33579;SDS011;19909;43.644;-79.438;2023-04-24T03:01:28;0.38;;;0.30;;
33579;SDS011;19909;43.644;-79.438;2023-04-24T03:03:54;0.45;;;0.40;;
33579;SDS011;19909;43.644;-79.438;2023-04-24T03:06:20;0.47;;;0.47;;
33579;SDS011;19909;43.644;-79.438;2023-04-24T03:08:47;0.20;;;0.20;;
33579;SDS011;19909;43.644;-79.438;2023-04-24T03:11:13;0.35;;;0.30;;
33579;SDS011;19909;43.644;-79.438;2023-04-24T03:13:39;0.40;;;0.40;;
33579;SDS011;19909;43.644;-79.438;2023-04-24T03:16:05;0.55;;;0.35;;
33579;SDS011;19909;43.644;-79.438;2023-04-24T03:18:31;0.25;;;0.20;;
33579;SDS011;19909;43.644;-79.438;2023-04-24T03:20:58;0.45;;;0.30;;
33579;SDS011;19909;43.644;-79.438;2023-04-24T03:23:24;0.43;;;0.40;;
33579;SDS011;19909;43.644;-79.438;2023-04-24T03:25:50;0.32;;;0.20;;
33579;SDS011;19909;43.644;-79.438;2023-04-24T03:28:16;1.45;;;0.60;;
33579;SDS011;19909;43.644;-79.438;2023-04-24T03:30:42;0.40;;;0.30;;
33579;SDS011;19909;43.644;-79.438;2023-04-24T03:33:09;0.30;;;0.30;;
33579;SDS011;19909;43.644;-79.438;2023-04-24T03:35:35;0.35;;;0.30;;
33579;SDS011;19909;43.644;-79.438;2023-04-24T03:38:01;1.42;;;0.30;;
33579;SDS011;19909;43.644;-79.438;2023-04-24T03:40:29;0.30;;;0.30;;
33579;SDS011;19909;43.644;-79.438;2023-04-24T03:42:56;0.50;;;0.30;;
33579;SDS011;19909;43.644;-79.438;2023-04-24T03:45:22;0.43;;;0.20;;
33579;SDS011;19909;43.644;-79.438;2023-04-24T03:47:49;0.25;;;0.20;;
33579;SDS011;19909;43.644;-79.438;2023-04-24T03:50:15;0.30;;;0.30;;
33579;SDS011;19909;43.644;-79.438;2023-04-24T03:52:41;0.40;;;0.20;;
33579;SDS011;19909;43.644;-79.438;2023-04-24T03:55:07;0.65;;;0.20;;
33579;SDS011;19909;43.644;-79.438;2023-04-24T03:57:34;0.40;;;0.30;;
33579;SDS011;19909;43.644;-79.438;2023-04-24T04:00:00;0.38;;;0.20;;
33579;SDS011;19909;43.644;-79.438;2023-04-24T04:02:29;1.05;;;0.30;;
33579;SDS011;19909;43.644;-79.438;2023-04-24T04:04:55;0.50;;;0.28;;
33579;SDS011;19909;43.644;-79.438;2023-04-24T04:07:21;0.20;;;0.20;;
33579;SDS011;19909;43.644;-79.438;2023-04-24T04:09:47;0.40;;;0.30;;
33579;SDS011;19909;43.644;-79.438;2023-04-24T04:12:13;0.50;;;0.40;;
33579;SDS011;19909;43.644;-79.438;2023-04-24T04:14:40;0.40;;;0.20;;
33579;SDS011;19909;43.644;-79.438;2023-04-24T04:17:06;0.50;;;0.28;;
33579;SDS011;19909;43.644;-79.438;2023-04-24T04:19:33;0.40;;;0.30;;
33579;SDS011;19909;43.644;-79.438;2023-04-24T04:22:00;0.45;;;0.30;;
33579;SDS011;19909;43.644;-79.438;2023-04-24T04:24:26;0.85;;;0.25;;
33579;SDS011;19909;43.644;-79.438;2023-04-24T04:26:53;0.80;;;0.40;;
33579;SDS011;19909;43.644;-79.438;2023-04-24T04:29:21;0.43;;;0.28;;
33579;SDS011;19909;43.644;-79.438;2023-04-24T04:31:49;0.32;;;0.20;;
33579;SDS011;19909;43.644;-79.438;2023-04-24T04:34:15;0.10;;;0.10;;
33579;SDS011;19909;43.644;-79.438;2023-04-24T04:36:41;0.40;;;0.40;;
33579;SDS011;19909;43.644;-79.438;2023-04-24T04:39:09;0.45;;;0.30;;
33579;SDS011;19909;43.644;-79.438;2023-04-24T04:41:35;0.40;;;0.30;;
33579;SDS011;19909;43.644;-79.438;2023-04-24T04:44:02;0.45;;;0.30;;
33579;SDS011;19909;43.644;-79.438;2023-04-24T04:46:30;0.32;;;0.22;;
33579;SDS011;19909;43.644;-79.438;2023-04-24T04:48:59;0.32;;;0.20;;
33579;SDS011;19909;43.644;-79.438;2023-04-24T04:51:26;0.30;;;0.30;;
33579;SDS011;19909;43.644;-79.438;2023-04-24T04:53:53;0.47;;;0.30;;
33579;SDS011;19909;43.644;-79.438;2023-04-24T04:56:19;0.40;;;0.20;;
33579;SDS011;19909;43.644;-79.438;2023-04-24T04:58:45;0.38;;;0.30;;
33579;SDS011;19909;43.644;-79.438;2023-04-24T05:01:12;0.30;;;0.28;;
33579;SDS011;19909;43.644;-79.438;2023-04-24T05:03:38;0.35;;;0.20;;
33579;SDS011;19909;43.644;-79.438;2023-04-24T05:06:07;0.10;;;0.10;;
33579;SDS011;19909;43.644;-79.438;2023-04-24T05:08:33;0.30;;;0.22;;
33579;SDS011;19909;43.644;-79.438;2023-04-24T05:10:59;0.70;;;0.28;;
33579;SDS011;19909;43.644;-79.438;2023-04-24T05:13:26;0.50;;;0.30;;
33579;SDS011;19909;43.644;-79.438;2023-04-24T05:15:52;0.50;;;0.38;;
33579;SDS011;19909;43.644;-79.438;2023-04-24T05:18:18;1.20;;;0.30;;
33579;SDS011;19909;43.644;-79.438;2023-04-24T05:20:44;0.32;;;0.25;;
33579;SDS011;19909;43.644;-79.438;2023-04-24T05:23:10;0.68;;;0.38;;
33579;SDS011;19909;43.644;-79.438;2023-04-24T05:25:37;0.82;;;0.30;;
33579;SDS011;19909;43.644;-79.438;2023-04-24T05:28:05;0.40;;;0.30;;
33579;SDS011;19909;43.644;-79.438;2023-04-24T05:30:31;0.60;;;0.30;;
33579;SDS011;19909;43.644;-79.438;2023-04-24T05:32:58;0.63;;;0.28;;
33579;SDS011;19909;43.644;-79.438;2023-04-24T05:35:24;0.40;;;0.35;;
33579;SDS011;19909;43.644;-79.438;2023-04-24T05:37:50;0.65;;;0.30;;
33579;SDS011;19909;43.644;-79.438;2023-04-24T05:40:16;0.30;;;0.30;;
33579;SDS011;19909;43.644;-79.438;2023-04-24T05:42:42;0.52;;;0.30;;
33579;SDS011;19909;43.644;-79.438;2023-04-24T05:45:08;0.20;;;0.15;;
33579;SDS011;19909;43.644;-79.438;2023-04-24T05:47:42;0.60;;;0.32;;
33579;SDS011;19909;43.644;-79.438;2023-04-24T05:50:09;0.40;;;0.30;;
33579;SDS011;19909;43.644;-79.438;2023-04-24T05:52:36;0.63;;;0.40;;
33579;SDS011;19909;43.644;-79.438;2023-04-24T05:55:02;0.50;;;0.40;;
33579;SDS011;19909;43.644;-79.438;2023-04-24T05:57:29;0.50;;;0.20;;
33579;SDS011;19909;43.644;-79.438;2023-04-24T05:59:55;0.22;;;0.22;;
33579;SDS011;19909;43.644;-79.438;2023-04-24T06:02:22;0.50;;;0.30;;
33579;SDS011;19909;43.644;-79.438;2023-04-24T06:04:48;1.35;;;0.22;;
33579;SDS011;19909;43.644;-79.438;2023-04-24T06:07:14;0.52;;;0.30;;
33579;SDS011;19909;43.644;-79.438;2023-04-24T06:09:40;0.70;;;0.20;;
33579;SDS011;19909;43.644;-79.438;2023-04-24T06:12:06;0.20;;;0.20;;
33579;SDS011;19909;43.644;-79.438;2023-04-24T06:14:34;0.30;;;0.20;;
33579;SDS011;19909;43.644;-79.438;2023-04-24T06:17:00;0.55;;;0.30;;
33579;SDS011;19909;43.644;-79.438;2023-04-24T06:19:26;0.40;;;0.20;;
33579;SDS011;19909;43.644;-79.438;2023-04-24T06:21:52;0.20;;;0.20;;
33579;SDS011;19909;43.644;-79.438;2023-04-24T06:24:18;0.30;;;0.30;;
33579;SDS011;19909;43.644;-79.438;2023-04-24T06:26:45;0.35;;;0.30;;
33579;SDS011;19909;43.644;-79.438;2023-04-24T06:29:11;0.57;;;0.30;;
33579;SDS011;19909;43.644;-79.438;2023-04-24T06:31:37;0.20;;;0.20;;
33579;SDS011;19909;43.644;-79.438;2023-04-24T06:34:04;0.47;;;0.30;;
33579;SDS011;19909;43.644;-79.438;2023-04-24T06:36:30;0.47;;;0.28;;
33579;SDS011;19909;43.644;-79.438;2023-04-24T06:38:59;0.25;;;0.20;;
33579;SDS011;19909;43.644;-79.438;2023-04-24T06:41:25;0.20;;;0.20;;
33579;SDS011;19909;43.644;-79.438;2023-04-24T06:43:51;0.77;;;0.30;;
33579;SDS011;19909;43.644;-79.438;2023-04-24T06:46:18;0.75;;;0.50;;
33579;SDS011;19909;43.644;-79.438;2023-04-24T06:48:44;0.32;;;0.30;;
33579;SDS011;19909;43.644;-79.438;2023-04-24T06:51:10;1.48;;;0.35;;
33579;SDS011;19909;43.644;-79.438;2023-04-24T06:53:36;0.30;;;0.20;;
33579;SDS011;19909;43.644;-79.438;2023-04-24T06:56:02;0.35;;;0.30;;
33579;SDS011;19909;43.644;-79.438;2023-04-24T06:58:30;0.30;;;0.25;;
33579;SDS011;19909;43.644;-79.438;2023-04-24T07:00:56;1.30;;;0.40;;
33579;SDS011;19909;43.644;-79.438;2023-04-24T07:03:22;0.60;;;0.25;;
33579;SDS011;19909;43.644;-79.438;2023-04-24T07:05:48;0.30;;;0.22;;
33579;SDS011;19909;43.644;-79.438;2023-04-24T07:08:15;0.45;;;0.30;;
33579;SDS011;19909;43.644;-79.438;2023-04-24T07:10:43;0.30;;;0.22;;
33579;SDS011;19909;43.644;-79.438;2023-04-24T07:13:10;1.25;;;0.35;;
33579;SDS011;19909;43.644;-79.438;2023-04-24T07:15:36;0.40;;;0.30;;
33579;SDS011;19909;43.644;-79.438;2023-04-24T07:18:02;1.45;;;0.50;;
33579;SDS011;19909;43.644;-79.438;2023-04-24T07:20:28;0.80;;;0.28;;
33579;SDS011;19909;43.644;-79.438;2023-04-24T07:22:55;0.40;;;0.30;;
33579;SDS011;19909;43.644;-79.438;2023-04-24T07:25:21;1.02;;;0.40;;
33579;SDS011;19909;43.644;-79.438;2023-04-24T07:27:47;0.70;;;0.40;;
33579;SDS011;19909;43.644;-79.438;2023-04-24T07:30:14;0.52;;;0.30;;
33579;SDS011;19909;43.644;-79.438;2023-04-24T07:32:40;0.93;;;0.20;;
33579;SDS011;19909;43.644;-79.438;2023-04-24T07:35:06;0.35;;;0.20;;
33579;SDS011;19909;43.644;-79.438;2023-04-24T07:37:34;0.40;;;0.32;;
33579;SDS011;19909;43.644;-79.438;2023-04-24T07:40:01;0.60;;;0.30;;
33579;SDS011;19909;43.644;-79.438;2023-04-24T07:42:28;0.50;;;0.30;;
33579;SDS011;19909;43.644;-79.438;2023-04-24T07:44:55;0.20;;;0.20;;
33579;SDS011;19909;43.644;-79.438;2023-04-24T07:47:21;1.02;;;0.47;;
33579;SDS011;19909;43.644;-79.438;2023-04-24T07:49:48;0.30;;;0.20;;
33579;SDS011;19909;43.644;-79.438;2023-04-24T07:52:14;0.50;;;0.35;;
33579;SDS011;19909;43.644;-79.438;2023-04-24T07:54:40;0.30;;;0.30;;
33579;SDS011;19909;43.644;-79.438;2023-04-24T07:57:08;1.00;;;0.55;;
33579;SDS011;19909;43.644;-79.438;2023-04-24T07:59:34;0.57;;;0.30;;
33579;SDS011;19909;43.644;-79.438;2023-04-24T08:02:00;0.40;;;0.20;;
33579;SDS011;19909;43.644;-79.438;2023-04-24T08:04:26;0.28;;;0.20;;
33579;SDS011;19909;43.644;-79.438;2023-04-24T08:06:53;0.43;;;0.40;;
33579;SDS011;19909;43.644;-79.438;2023-04-24T08:09:19;0.35;;;0.30;;
33579;SDS011;19909;43.644;-79.438;2023-04-24T08:11:45;0.25;;;0.20;;
33579;SDS011;19909;43.644;-79.438;2023-04-24T08:14:11;0.63;;;0.28;;
33579;SDS011;19909;43.644;-79.438;2023-04-24T08:16:38;0.70;;;0.30;;
33579;SDS011;19909;43.644;-79.438;2023-04-24T08:19:04;0.28;;;0.28;;
33579;SDS011;19909;43.644;-79.438;2023-04-24T08:21:30;0.65;;;0.32;;
33579;SDS011;19909;43.644;-79.438;2023-04-24T08:23:57;0.30;;;0.20;;
33579;SDS011;19909;43.644;-79.438;2023-04-24T08:26:23;0.95;;;0.50;;
33579;SDS011;19909;43.644;-79.438;2023-04-24T08:28:50;0.28;;;0.25;;
33579;SDS011;19909;43.644;-79.438;2023-04-24T08:31:16;0.30;;;0.20;;
33579;SDS011;19909;43.644;-79.438;2023-04-24T08:33:42;0.52;;;0.52;;
33579;SDS011;19909;43.644;-79.438;2023-04-24T08:36:10;0.65;;;0.30;;
33579;SDS011;19909;43.644;-79.438;2023-04-24T08:38:36;0.30;;;0.30;;
33579;SDS011;19909;43.644;-79.438;2023-04-24T08:41:02;0.30;;;0.30;;
33579;SDS011;19909;43.644;-79.438;2023-04-24T08:43:30;0.30;;;0.22;;
33579;SDS011;19909;43.644;-79.438;2023-04-24T08:46:03;0.40;;;0.32;;
33579;SDS011;19909;43.644;-79.438;2023-04-24T08:48:29;0.30;;;0.30;;
33579;SDS011;19909;43.644;-79.438;2023-04-24T08:50:56;0.40;;;0.38;;
33579;SDS011;19909;43.644;-79.438;2023-04-24T08:53:24;0.30;;;0.20;;
33579;SDS011;19909;43.644;-79.438;2023-04-24T08:55:51;0.40;;;0.40;;
33579;SDS011;19909;43.644;-79.438;2023-04-24T08:58:19;0.77;;;0.43;;
33579;SDS011;19909;43.644;-79.438;2023-04-24T09:00:45;0.40;;;0.30;;
33579;SDS011;19909;43.644;-79.438;2023-04-24T09:03:13;0.47;;;0.40;;
33579;SDS011;19909;43.644;-79.438;2023-04-24T09:05:46;0.20;;;0.13;;
33579;SDS011;19909;43.644;-79.438;2023-04-24T09:08:13;1.38;;;0.40;;
33579;SDS011;19909;43.644;-79.438;2023-04-24T09:10:40;0.38;;;0.10;;
33579;SDS011;19909;43.644;-79.438;2023-04-24T09:13:06;0.90;;;0.40;;
33579;SDS011;19909;43.644;-79.438;2023-04-24T09:15:39;0.20;;;0.20;;
33579;SDS011;19909;43.644;-79.438;2023-04-24T09:18:06;0.30;;;0.28;;
33579;SDS011;19909;43.644;-79.438;2023-04-24T09:20:32;0.30;;;0.30;;
33579;SDS011;19909;43.644;-79.438;2023-04-24T09:23:01;0.40;;;0.30;;
33579;SDS011;19909;43.644;-79.438;2023-04-24T09:25:34;0.32;;;0.30;;
33579;SDS011;19909;43.644;-79.438;2023-04-24T09:28:03;0.43;;;0.32;;
33579;SDS011;19909;43.644;-79.438;2023-04-24T09:30:32;0.28;;;0.28;;
33579;SDS011;19909;43.644;-79.438;2023-04-24T09:33:13;0.68;;;0.40;;
33579;SDS011;19909;43.644;-79.438;2023-04-24T09:35:41;0.40;;;0.30;;
33579;SDS011;19909;43.644;-79.438;2023-04-24T09:38:08;0.40;;;0.30;;
33579;SDS011;19909;43.644;-79.438;2023-04-24T09:40:35;0.35;;;0.30;;
33579;SDS011;19909;43.644;-79.438;2023-04-24T09:43:02;0.70;;;0.40;;
33579;SDS011;19909;43.644;-79.438;2023-04-24T09:45:28;0.75;;;0.30;;
33579;SDS011;19909;43.644;-79.438;2023-04-24T09:48:01;2.08;;;0.40;;
33579;SDS011;19909;43.644;-79.438;2023-04-24T09:50:29;0.30;;;0.30;;
33579;SDS011;19909;43.644;-79.438;2023-04-24T09:52:58;1.75;;;0.43;;
33579;SDS011;19909;43.644;-79.438;2023-04-24T09:55:29;1.20;;;0.57;;
33579;SDS011;19909;43.644;-79.438;2023-04-24T09:57:59;0.32;;;0.32;;
33579;SDS011;19909;43.644;-79.438;2023-04-24T10:00:30;0.65;;;0.40;;
33579;SDS011;19909;43.644;-79.438;2023-04-24T10:03:01;0.30;;;0.20;;
33579;SDS011;19909;43.644;-79.438;2023-04-24T10:10:29;0.35;;;0.28;;
33579;SDS011;19909;43.644;-79.438;2023-04-24T10:12:57;0.45;;;0.40;;
33579;SDS011;19909;43.644;-79.438;2023-04-24T10:15:24;0.30;;;0.30;;
33579;SDS011;19909;43.644;-79.438;2023-04-24T10:17:51;0.40;;;0.30;;
33579;SDS011;19909;43.644;-79.438;2023-04-24T10:20:19;0.63;;;0.43;;
33579;SDS011;19909;43.644;-79.438;2023-04-24T10:22:50;0.40;;;0.40;;
33579;SDS011;19909;43.644;-79.438;2023-04-24T10:25:18;0.50;;;0.38;;
33579;SDS011;19909;43.644;-79.438;2023-04-24T10:27:46;0.60;;;0.45;;
33579;SDS011;19909;43.644;-79.438;2023-04-24T10:30:14;0.40;;;0.40;;
33579;SDS011;19909;43.644;-79.438;2023-04-24T10:32:42;0.30;;;0.30;;
33579;SDS011;19909;43.644;-79.438;2023-04-24T10:35:08;0.70;;;0.40;;
33579;SDS011;19909;43.644;-79.438;2023-04-24T10:37:37;1.35;;;0.50;;
33579;SDS011;19909;43.644;-79.438;2023-04-24T10:40:29;0.85;;;0.50;;
33579;SDS011;19909;43.644;-79.438;2023-04-24T10:45:31;0.60;;;0.47;;
33579;SDS011;19909;43.644;-79.438;2023-04-24T10:47:58;0.70;;;0.50;;
33579;SDS011;19909;43.644;-79.438;2023-04-24T10:50:29;0.85;;;0.73;;
33579;SDS011;19909;43.644;-79.438;2023-04-24T10:53:17;0.77;;;0.70;;
33579;SDS011;19909;43.644;-79.438;2023-04-24T10:56:07;1.65;;;0.60;;
33579;SDS011;19909;43.644;-79.438;2023-04-24T10:58:42;1.83;;;0.55;;
33579;SDS011;19909;43.644;-79.438;2023-04-24T11:01:25;0.75;;;0.50;;
33579;SDS011;19909;43.644;-79.438;2023-04-24T11:03:57;0.63;;;0.55;;
33579;SDS011;19909;43.644;-79.438;2023-04-24T11:06:34;1.80;;;0.40;;
33579;SDS011;19909;43.644;-79.438;2023-04-24T11:09:08;1.08;;;0.70;;
33579;SDS011;19909;43.644;-79.438;2023-04-24T11:11:38;2.00;;;0.50;;
33579;SDS011;19909;43.644;-79.438;2023-04-24T11:19:20;0.43;;;0.40;;
33579;SDS011;19909;43.644;-79.438;2023-04-24T11:34:59;0.75;;;0.52;;
33579;SDS011;19909;43.644;-79.438;2023-04-24T11:37:27;0.80;;;0.50;;
33579;SDS011;19909;43.644;-79.438;2023-04-24T11:39:56;0.73;;;0.60;;
33579;SDS011;19909;43.644;-79.438;2023-04-24T11:42:23;0.85;;;0.50;;
33579;SDS011;19909;43.644;-79.438;2023-04-24T11:44:53;1.00;;;0.70;;
33579;SDS011;19909;43.644;-79.438;2023-04-24T11:47:30;1.25;;;0.60;;
33579;SDS011;19909;43.644;-79.438;2023-04-24T11:49:59;2.50;;;0.65;;
33579;SDS011;19909;43.644;-79.438;2023-04-24T11:52:26;0.90;;;0.70;;
33579;SDS011;19909;43.644;-79.438;2023-04-24T11:54:53;1.27;;;0.73;;
33579;SDS011;19909;43.644;-79.438;2023-04-24T11:57:20;1.38;;;0.60;;
33579;SDS011;19909;43.644;-79.438;2023-04-24T11:59:47;0.80;;;0.60;;
33579;SDS011;19909;43.644;-79.438;2023-04-24T12:02:20;2.20;;;0.70;;
33579;SDS011;19909;43.644;-79.438;2023-04-24T12:07:12;0.88;;;0.60;;
33579;SDS011;19909;43.644;-79.438;2023-04-24T12:09:42;1.42;;;0.85;;
33579;SDS011;19909;43.644;-79.438;2023-04-24T12:12:11;0.77;;;0.60;;
33579;SDS011;19909;43.644;-79.438;2023-04-24T12:17:15;2.15;;;0.52;;
33579;SDS011;19909;43.644;-79.438;2023-04-24T12:19:45;1.45;;;0.60;;
33579;SDS011;19909;43.644;-79.438;2023-04-24T12:22:13;0.63;;;0.60;;
33579;SDS011;19909;43.644;-79.438;2023-04-24T12:27:25;1.00;;;0.80;;
33579;SDS011;19909;43.644;-79.438;2023-04-24T12:29:58;0.80;;;0.70;;
33579;SDS011;19909;43.644;-79.438;2023-04-24T12:32:26;0.75;;;0.52;;
33579;SDS011;19909;43.644;-79.438;2023-04-24T12:34:53;1.17;;;0.70;;
33579;SDS011;19909;43.644;-79.438;2023-04-24T12:37:20;1.05;;;0.77;;
33579;SDS011;19909;43.644;-79.438;2023-04-24T12:42:48;0.80;;;0.80;;
33579;SDS011;19909;43.644;-79.438;2023-04-24T12:45:19;2.38;;;0.80;;
33579;SDS011;19909;43.644;-79.438;2023-04-24T12:47:48;0.95;;;0.60;;
33579;SDS011;19909;43.644;-79.438;2023-04-24T12:50:15;1.13;;;0.75;;
33579;SDS011;19909;43.644;-79.438;2023-04-24T12:52:42;1.42;;;0.47;;
33579;SDS011;19909;43.644;-79.438;2023-04-24T12:55:09;1.27;;;0.60;;
33579;SDS011;19909;43.644;-79.438;2023-04-24T12:57:37;1.08;;;0.60;;
33579;SDS011;19909;43.644;-79.438;2023-04-24T13:00:05;1.52;;;1.10;;
33579;SDS011;19909;43.644;-79.438;2023-04-24T13:02:32;1.33;;;0.80;;
33579;SDS011;19909;43.644;-79.438;2023-04-24T13:04:59;1.38;;;0.60;;
33579;SDS011;19909;43.644;-79.438;2023-04-24T13:07:26;1.35;;;0.52;;
33579;SDS011;19909;43.644;-79.438;2023-04-24T13:09:54;0.60;;;0.52;;
33579;SDS011;19909;43.644;-79.438;2023-04-24T13:12:20;1.25;;;0.63;;
33579;SDS011;19909;43.644;-79.438;2023-04-24T13:14:48;0.95;;;0.60;;
33579;SDS011;19909;43.644;-79.438;2023-04-24T13:17:15;0.90;;;0.80;;
33579;SDS011;19909;43.644;-79.438;2023-04-24T13:19:42;0.82;;;0.63;;
33579;SDS011;19909;43.644;-79.438;2023-04-24T13:22:10;0.90;;;0.70;;
33579;SDS011;19909;43.644;-79.438;2023-04-24T13:24:38;4.03;;;0.55;;
33579;SDS011;19909;43.644;-79.438;2023-04-24T13:27:07;0.70;;;0.40;;
33579;SDS011;19909;43.644;-79.438;2023-04-24T13:29:34;0.50;;;0.40;;
33579;SDS011;19909;43.644;-79.438;2023-04-24T13:32:01;0.70;;;0.70;;
33579;SDS011;19909;43.644;-79.438;2023-04-24T13:34:27;0.50;;;0.40;;
33579;SDS011;19909;43.644;-79.438;2023-04-24T13:36:54;0.75;;;0.60;;
33579;SDS011;19909;43.644;-79.438;2023-04-24T13:39:22;0.77;;;0.60;;
33579;SDS011;19909;43.644;-79.438;2023-04-24T13:41:48;0.90;;;0.70;;
33579;SDS011;19909;43.644;-79.438;2023-04-24T13:44:15;0.90;;;0.52;;
33579;SDS011;19909;43.644;-79.438;2023-04-24T13:46:43;1.02;;;0.60;;
33579;SDS011;19909;43.644;-79.438;2023-04-24T13:49:14;1.05;;;0.60;;
33579;SDS011;19909;43.644;-79.438;2023-04-24T13:51:41;1.27;;;0.60;;
33579;SDS011;19909;43.644;-79.438;2023-04-24T13:54:08;1.10;;;0.50;;
33579;SDS011;19909;43.644;-79.438;2023-04-24T13:56:34;1.05;;;0.60;;
33579;SDS011;19909;43.644;-79.438;2023-04-24T13:59:00;0.60;;;0.50;;
33579;SDS011;19909;43.644;-79.438;2023-04-24T14:01:27;0.88;;;0.68;;
33579;SDS011;19909;43.644;-79.438;2023-04-24T14:03:55;0.85;;;0.73;;
33579;SDS011;19909;43.644;-79.438;2023-04-24T14:06:22;0.80;;;0.70;;
33579;SDS011;19909;43.644;-79.438;2023-04-24T14:08:48;0.82;;;0.60;;
33579;SDS011;19909;43.644;-79.438;2023-04-24T14:11:15;0.50;;;0.50;;
33579;SDS011;19909;43.644;-79.438;2023-04-24T14:13:42;1.02;;;0.57;;
33579;SDS011;19909;43.644;-79.438;2023-04-24T14:16:09;0.50;;;0.40;;
33579;SDS011;19909;43.644;-79.438;2023-04-24T14:18:36;0.65;;;0.50;;
33579;SDS011;19909;43.644;-79.438;2023-04-24T14:21:03;0.85;;;0.75;;
33579;SDS011;19909;43.644;-79.438;2023-04-24T14:23:30;0.65;;;0.55;;
33579;SDS011;19909;43.644;-79.438;2023-04-24T14:25:57;2.03;;;0.57;;
33579;SDS011;19909;43.644;-79.438;2023-04-24T14:28:24;0.70;;;0.60;;
33579;SDS011;19909;43.644;-79.438;2023-04-24T14:30:51;0.65;;;0.57;;
33579;SDS011;19909;43.644;-79.438;2023-04-24T14:33:18;1.08;;;0.63;;
33579;SDS011;19909;43.644;-79.438;2023-04-24T14:35:45;1.17;;;0.60;;
33579;SDS011;19909;43.644;-79.438;2023-04-24T14:38:11;0.80;;;0.60;;
33579;SDS011;19909;43.644;-79.438;2023-04-24T14:40:37;0.88;;;0.80;;
33579;SDS011;19909;43.644;-79.438;2023-04-24T14:43:04;0.88;;;0.55;;
33579;SDS011;19909;43.644;-79.438;2023-04-24T14:45:30;0.95;;;0.50;;
33579;SDS011;19909;43.644;-79.438;2023-04-24T14:47:57;0.63;;;0.50;;
33579;SDS011;19909;43.644;-79.438;2023-04-24T14:50:23;1.42;;;0.80;;
33579;SDS011;19909;43.644;-79.438;2023-04-24T14:52:53;0.85;;;0.70;;
33579;SDS011;19909;43.644;-79.438;2023-04-24T14:55:22;0.75;;;0.70;;
33579;SDS011;19909;43.644;-79.438;2023-04-24T14:57:49;0.68;;;0.47;;